Skip Navigation Links
NOAA logo - Click to go to the NOAA homepage
NOAA's National Weather Service
Alaska Aviation Weather Unit
  NWS logo - Click to go to the NWS homepage
Left Navbar Graphic     15 AKDT = 23 GMT

   
NOAA is celebrating 200 years of science, service, and stewardship. Visit the NOAA 200th celebration Web site to learn more.
USA.gov is the U.S. Government's official Web portal to all Federal, state and local government Web resources and services.
Facebook
NWS on Facebook

Important Change Regarding the AAWU Web Presence

 

Over the last several months, the AAWU has been working to navigate its webpages to a nationally supported server. Security, as well as other needs, have necessitated the change.  We have been given an extension for the site changeover while we diligently work at addressing feedback received. As of July 14, 2017, aawu.arh.noaa.gov will be discontinued. The new AAWU web address is weather.gov/aawu. It is now live and will run in-parallel with the old site until it is discontinued on July 14, 2017. Please continue to send any feedback or questions regarding the new webpages to nws.ar.aawu.webauthors@noaa.gov.  Thank you for your patience during this time of transition.
AAWU Home :: Display TAF Add Bookmark
TAF PAYA 192327Z 2000/2024  10007KT P6SM VCSH SCT025 OVC050
      TEMPO 2003/2006 6SM -SHRA BKN025 OVC050
     FM200600 10005KT 6SM -SHRA SCT010 BKN025 OVC040
     FM201500 20004KT P6SM VCSH SCT025 OVC050
     FM202100 12008KT 6SM -SHRA SCT025 OVC040
      AMD NOT SKED=

7902
FTAK31 PAJN 192327
TAFAHN
TAF
PAYA 191958Z 07008KT 10SM OVC060 09/M01 A2894=

PAYA 192053Z 08007KT 10SM OVC047 09/M01 A2895=

PAYA 192154Z VRB05KT 7SM -RA BKN034 OVC042 08/01 A2897=

PAYA 192327Z 360004KT 10SM OVC055 07/03 A2897=


NOAA's National Weather Service
Alaska Aviation Weather Unit
6930 Sand Lake Road
Anchorage, AK 99502-1845
Disclaimer
Credits
Glossary
Privacy Policy
About Us
Career Opportunities
Contact AAWU Internet Services Site last modified: April, 17th 2012